Time;durP1;ratioP1;P1;durP2;ratioP2;P2;SDS_P1;SDS_P2;PMS_P1;PMS_P2;Temp;Humidity;BMP_temperature;BMP_pressure;BME280_temperature;BME280_humidity;BME280_pressure;Samples;Min_cycle;Max_cycle;Signal;HPM_P1;HPM_P2
2022/06/08 00:00:51;;;;;;;0.88;0.77;;;;;;;10.66;100.00;98175.84;5055584;28;20028;-70
2022/06/08 00:03:23;;;;;;;0.77;0.70;;;;;;;10.53;100.00;98181.47;5045097;28;20037;-70
2022/06/08 00:05:49;;;;;;;1.50;0.80;;;;;;;10.51;100.00;98170.97;5060482;28;20065;-70
2022/06/08 00:08:14;;;;;;;1.15;0.73;;;;;;;10.49;100.00;98174.56;5053551;28;20344;-70
2022/06/08 00:10:40;;;;;;;1.15;0.93;;;;;;;10.52;100.00;98174.47;5060645;28;20185;-70
2022/06/08 00:13:06;;;;;;;0.80;0.70;;;;;;;10.56;100.00;98165.59;5044161;28;20063;-70
2022/06/08 00:15:32;;;;;;;3.13;1.20;;;;;;;10.54;100.00;98172.69;5043929;28;20032;-70
2022/06/08 00:17:58;;;;;;;1.20;0.90;;;;;;;10.51;100.00;98163.09;5043868;28;20088;-70
2022/06/08 00:20:23;;;;;;;1.17;0.77;;;;;;;10.52;100.00;98163.97;5043886;28;20021;-70
2022/06/08 00:22:49;;;;;;;1.38;0.88;;;;;;;10.51;100.00;98170.13;5053003;28;20056;-70
2022/06/08 00:25:14;;;;;;;2.40;1.00;;;;;;;10.45;100.00;98162.41;5063022;28;20028;-70
2022/06/08 00:27:41;;;;;;;4.60;1.23;;;;;;;10.44;100.00;98155.41;5062820;28;20049;-70
2022/06/08 00:30:08;;;;;;;1.05;0.80;;;;;;;10.50;100.00;98155.22;5059008;28;20093;-70
2022/06/08 00:32:34;;;;;;;1.08;0.80;;;;;;;10.32;100.00;98155.72;5043847;28;20025;-70
2022/06/08 00:35:01;;;;;;;1.20;0.90;;;;;;;10.40;100.00;98153.75;5047203;28;20037;-70
2022/06/08 00:37:26;;;;;;;1.02;0.73;;;;;;;10.29;100.00;98161.06;5053582;28;20020;-70
2022/06/08 00:39:52;;;;;;;1.13;0.80;;;;;;;10.28;100.00;98154.06;5063353;28;20267;-70
2022/06/08 00:42:18;;;;;;;1.33;0.90;;;;;;;10.36;100.00;98146.84;5063604;28;20028;-70
2022/06/08 00:44:54;;;;;;;0.95;0.80;;;;;;;10.41;100.00;98153.72;5063629;28;20055;-70
2022/06/08 00:47:24;;;;;;;1.20;1.05;;;;;;;10.26;100.00;98151.50;5066774;28;20071;-70
2022/06/08 00:49:54;;;;;;;2.20;0.90;;;;;;;10.32;100.00;98150.47;5067267;28;20023;-70
2022/06/08 00:52:21;;;;;;;1.05;0.90;;;;;;;10.36;100.00;98145.09;5067489;28;20053;-70
2022/06/08 00:54:50;;;;;;;1.50;0.70;;;;;;;10.30;100.00;98141.75;5067415;28;20029;-70
2022/06/08 00:57:29;;;;;;;1.17;0.65;;;;;;;10.28;100.00;98149.69;5067647;28;20209;-70
2022/06/08 01:00:01;;;;;;;0.90;0.63;;;;;;;10.30;100.00;98147.00;5067041;28;20042;-70
2022/06/08 01:02:27;;;;;;;0.80;0.80;;;;;;;10.41;100.00;98144.97;5054360;28;20399;-70
2022/06/08 01:05:40;;;;;;;0.70;0.70;;;;;;;10.40;100.00;98140.59;5047246;28;20037;-70
2022/06/08 01:08:22;;;;;;;4.82;0.88;;;;;;;10.29;100.00;98140.03;5046765;28;20037;-70
2022/06/08 01:10:50;;;;;;;1.35;0.60;;;;;;;10.40;100.00;98143.22;5047142;28;20377;-70
2022/06/08 01:13:15;;;;;;;0.70;0.50;;;;;;;10.55;100.00;98133.19;5061515;28;20028;-70
2022/06/08 01:15:41;;;;;;;0.80;0.60;;;;;;;10.61;100.00;98137.41;5057763;28;20371;-70
2022/06/08 01:18:08;;;;;;;0.75;0.70;;;;;;;10.44;100.00;98129.97;5065459;28;20067;-70
2022/06/08 01:20:34;;;;;;;1.23;0.70;;;;;;;10.49;100.00;98132.47;5066160;28;20049;-70
2022/06/08 01:23:00;;;;;;;0.80;0.73;;;;;;;10.41;100.00;98129.19;5066486;28;20028;-70
2022/06/08 01:25:46;;;;;;;3.13;0.80;;;;;;;10.52;100.00;98132.38;5059970;28;20313;-70
2022/06/08 01:28:22;;;;;;;0.85;0.82;;;;;;;10.44;100.00;98123.84;5058720;28;20036;-70
2022/06/08 01:30:58;;;;;;;0.70;0.70;;;;;;;10.49;100.00;98127.19;5066069;28;20032;-70
2022/06/08 01:33:37;;;;;;;0.85;0.85;;;;;;;10.50;100.00;98128.91;5046996;28;20025;-70
2022/06/08 01:36:15;;;;;;;0.93;0.82;;;;;;;10.37;100.00;98122.25;5046711;28;20056;-70
2022/06/08 01:38:43;;;;;;;0.93;0.80;;;;;;;10.40;100.00;98116.91;5048022;28;20108;-70
2022/06/08 01:41:41;;;;;;;0.98;0.80;;;;;;;10.34;100.00;98117.06;5065832;28;20047;-70
2022/06/08 01:44:16;;;;;;;0.93;0.77;;;;;;;10.39;100.00;98112.56;5065712;28;20104;-70
2022/06/08 01:46:54;;;;;;;0.70;0.70;;;;;;;10.35;100.00;98108.31;5063972;28;20103;-70
2022/06/08 01:49:33;;;;;;;1.48;0.80;;;;;;;10.44;100.00;98108.06;5046763;28;20380;-70
2022/06/08 01:52:05;;;;;;;0.88;0.80;;;;;;;10.53;100.00;98113.06;5054576;28;20205;-70
2022/06/08 01:54:49;;;;;;;1.10;0.90;;;;;;;10.64;100.00;98105.75;5065798;28;20089;-70
2022/06/08 01:57:46;;;;;;;1.83;0.73;;;;;;;10.72;100.00;98101.97;5046970;28;20021;-70
2022/06/08 02:00:21;;;;;;;1.00;0.70;;;;;;;10.65;100.00;98096.94;5049057;28;20079;-70
2022/06/08 02:02:46;;;;;;;1.98;0.80;;;;;;;10.73;100.00;98089.69;5052640;28;20025;-70
2022/06/08 02:05:21;;;;;;;1.42;1.02;;;;;;;10.44;100.00;98081.75;5046193;28;20340;-70
2022/06/08 02:07:54;;;;;;;1.08;0.82;;;;;;;10.52;100.00;98091.16;5046326;28;20316;-70
2022/06/08 02:10:26;;;;;;;1.17;0.80;;;;;;;10.69;100.00;98083.63;5046102;28;20045;-70
2022/06/08 02:12:57;;;;;;;3.63;1.00;;;;;;;10.78;100.00;98085.13;5055889;28;20021;-70
2022/06/08 02:15:29;;;;;;;1.13;0.90;;;;;;;10.87;100.00;98082.25;5064381;28;20033;-70
2022/06/08 02:17:57;;;;;;;1.13;0.90;;;;;;;10.89;100.00;98072.53;5047349;28;20025;-70
2022/06/08 02:20:57;;;;;;;0.95;0.80;;;;;;;10.78;100.00;98071.97;5046009;28;20317;-70
2022/06/08 02:23:49;;;;;;;6.22;1.10;;;;;;;10.81;100.00;98075.41;5044857;28;20033;-70
2022/06/08 02:26:18;;;;;;;0.83;0.83;;;;;;;10.88;100.00;98074.31;5060159;28;20096;-70
2022/06/08 02:28:49;;;;;;;2.80;1.00;;;;;;;10.85;100.00;98069.13;5065101;28;20031;-70
2022/06/08 02:31:39;;;;;;;0.77;0.65;;;;;;;10.97;100.00;98067.91;5064821;28;20032;-70
2022/06/08 02:34:29;;;;;;;0.82;0.68;;;;;;;10.92;100.00;98061.94;5054465;28;20032;-70
2022/06/08 02:37:12;;;;;;;1.13;0.88;;;;;;;10.81;100.00;98064.88;5058719;28;20079;-70
2022/06/08 02:40:06;;;;;;;0.80;0.80;;;;;;;10.84;100.00;98062.16;5065198;28;20102;-70
2022/06/08 02:42:39;;;;;;;0.50;0.50;;;;;;;10.86;100.00;98059.47;5060987;28;20037;-70
2022/06/08 02:45:14;;;;;;;6.10;1.10;;;;;;;10.76;100.00;98058.03;5045446;28;20107;-70
2022/06/08 02:47:42;;;;;;;0.90;0.80;;;;;;;10.75;100.00;98065.03;5045216;28;20085;-70
2022/06/08 02:50:14;;;;;;;1.85;0.80;;;;;;;10.78;100.00;98066.72;5045350;28;20229;-70
2022/06/08 02:52:43;;;;;;;1.95;0.80;;;;;;;10.80;100.00;98057.03;5045402;28;20025;-70
2022/06/08 02:55:45;;;;;;;1.73;0.60;;;;;;;10.68;100.00;98049.47;5047417;28;20053;-70
2022/06/08 02:59:01;;;;;;;3.63;0.90;;;;;;;10.49;100.00;98045.63;5038330;28;20041;-70
2022/06/08 03:01:38;;;;;;;2.22;0.90;;;;;;;10.41;100.00;98034.50;5036410;28;20036;-70
2022/06/08 03:04:27;;;;;;;4.80;1.05;;;;;;;10.49;100.00;98037.75;5061028;28;20209;-70
2022/06/08 03:07:05;;;;;;;2.78;1.10;;;;;;;10.53;100.00;98036.75;5047820;28;20036;-70
2022/06/08 03:09:31;;;;;;;0.98;0.88;;;;;;;10.56;100.00;98041.91;5052831;28;20133;-70
2022/06/08 03:12:02;;;;;;;1.40;0.88;;;;;;;10.60;100.00;98040.94;5060654;28;20205;-70
2022/06/08 03:14:29;;;;;;;2.20;1.20;;;;;;;10.49;100.00;98032.47;5057307;28;20100;-70
2022/06/08 03:17:00;;;;;;;0.95;0.90;;;;;;;10.45;100.00;98036.13;5044799;28;20028;-70
2022/06/08 03:19:27;;;;;;;5.43;1.10;;;;;;;10.41;100.00;98032.69;5054886;28;20033;-70
2022/06/08 03:21:54;;;;;;;2.97;0.90;;;;;;;10.34;100.00;98032.91;5064102;28;20031;-70
2022/06/08 03:24:21;;;;;;;4.35;1.00;;;;;;;10.29;100.00;98030.41;5064093;28;20049;-70
2022/06/08 03:26:53;;;;;;;2.58;0.80;;;;;;;10.23;100.00;98032.34;5063685;28;20071;-70
2022/06/08 03:29:19;;;;;;;1.38;0.75;;;;;;;10.16;100.00;98028.19;5064000;28;20025;-70
2022/06/08 03:31:44;;;;;;;2.28;0.75;;;;;;;10.19;100.00;98028.09;5063717;28;20228;-70
2022/06/08 03:34:10;;;;;;;1.27;0.93;;;;;;;10.19;100.00;98028.09;5062762;28;20092;-70
2022/06/08 03:36:35;;;;;;;2.05;0.80;;;;;;;10.09;100.00;98021.34;5063830;28;20017;-70
2022/06/08 03:39:02;;;;;;;1.00;0.80;;;;;;;10.21;100.00;98028.91;5063850;28;20024;-70
2022/06/08 03:41:27;;;;;;;0.90;0.80;;;;;;;10.26;100.00;98029.66;5050753;28;20029;-70
2022/06/08 03:43:53;;;;;;;1.15;0.95;;;;;;;10.14;100.00;98025.59;5047952;28;20350;-70
2022/06/08 03:46:20;;;;;;;0.98;0.82;;;;;;;10.01;100.00;98021.53;5047995;28;20240;-70
2022/06/08 03:48:45;;;;;;;4.18;1.38;;;;;;;10.07;100.00;98029.28;5063998;28;20216;-70
2022/06/08 03:51:15;;;;;;;1.08;0.70;;;;;;;10.23;100.00;98021.84;5064052;28;20064;-70
2022/06/08 03:53:55;;;;;;;1.23;0.70;;;;;;;10.19;100.00;98028.09;5064091;28;20028;-70
2022/06/08 03:56:23;;;;;;;0.90;0.80;;;;;;;10.25;100.00;98033.19;5057311;28;20230;-70
2022/06/08 03:58:49;;;;;;;0.63;0.63;;;;;;;10.24;100.00;98034.94;5044177;28;20027;-70
2022/06/08 04:01:15;;;;;;;1.92;0.70;;;;;;;10.23;100.00;98040.25;5046380;28;20049;-70
2022/06/08 04:03:40;;;;;;;1.27;0.80;;;;;;;10.08;100.00;98035.41;5054442;28;20087;-70
2022/06/08 04:06:06;;;;;;;3.00;0.68;;;;;;;10.06;100.00;98048.56;5049386;28;20212;-70
2022/06/08 04:08:31;;;;;;;0.70;0.70;;;;;;;9.99;100.00;98041.72;5062130;28;20021;-70
2022/06/08 04:10:58;;;;;;;0.60;0.60;;;;;;;10.18;100.00;98031.59;5062980;28;20025;-70
2022/06/08 04:13:23;;;;;;;0.77;0.70;;;;;;;10.25;100.00;98041.09;5062946;28;20052;-70
2022/06/08 04:15:49;;;;;;;1.55;1.13;;;;;;;10.44;100.00;98043.13;5061018;28;20339;-70
2022/06/08 04:18:20;;;;;;;0.70;0.70;;;;;;;10.53;100.00;98036.75;5062539;28;20009;-70
2022/06/08 04:20:49;;;;;;;0.55;0.55;;;;;;;10.64;100.00;98037.31;5064902;28;20028;-70
2022/06/08 04:23:17;;;;;;;0.55;0.50;;;;;;;10.81;100.00;98041.19;5069503;28;20020;-70
2022/06/08 04:25:44;;;;;;;0.77;0.60;;;;;;;10.97;100.00;98044.22;5069503;28;20351;-70
2022/06/08 04:28:13;;;;;;;2.80;0.65;;;;;;;11.10;100.00;98032.38;5053321;28;20021;-70
2022/06/08 04:30:39;;;;;;;0.90;0.80;;;;;;;11.35;100.00;98050.91;5052132;28;20025;-70
2022/06/08 04:33:05;;;;;;;1.23;0.95;;;;;;;11.63;99.78;98042.13;5063702;28;20036;-70
2022/06/08 04:35:32;;;;;;;3.15;0.82;;;;;;;11.45;100.00;98045.31;5067659;28;20025;-70
2022/06/08 04:37:58;;;;;;;4.03;0.93;;;;;;;11.47;99.99;98032.97;5067145;28;20359;-70
2022/06/08 04:40:24;;;;;;;0.88;0.60;;;;;;;11.50;99.80;98026.72;5069864;28;20025;-70
2022/06/08 04:42:49;;;;;;;0.65;0.65;;;;;;;11.52;99.62;98020.47;5070311;28;20024;-70
2022/06/08 04:45:15;;;;;;;1.10;0.70;;;;;;;11.35;99.95;98017.53;5070291;28;20320;-70
2022/06/08 04:47:40;;;;;;;1.10;1.00;;;;;;;11.33;100.00;98031.69;5070169;28;20020;-70
2022/06/08 04:50:07;;;;;;;0.70;0.70;;;;;;;11.50;100.00;98019.69;5070167;28;20036;-70
2022/06/08 04:52:33;;;;;;;2.15;1.10;;;;;;;11.59;100.00;98018.50;5070462;28;20024;-70
2022/06/08 04:54:58;;;;;;;2.35;0.80;;;;;;;11.61;100.00;98019.34;5070194;28;20367;-70
2022/06/08 04:57:24;;;;;;;1.65;0.85;;;;;;;11.72;100.00;98018.09;5070192;28;20242;-70
2022/06/08 04:59:49;;;;;;;1.08;0.90;;;;;;;11.84;100.00;98015.06;5070140;28;20324;-70
2022/06/08 05:02:42;;;;;;;3.03;0.70;;;;;;;11.91;100.00;98021.84;5070033;28;20020;-70
2022/06/08 05:05:00;;;;;;;1.50;0.90;;;;;;;12.02;100.00;98024.09;5070022;28;20059;-70
2022/06/08 05:07:26;;;;;;;3.13;1.20;;;;;;;12.04;100.00;98017.84;5070039;28;20236;-70
2022/06/08 05:09:51;;;;;;;2.95;0.95;;;;;;;11.99;100.00;98019.78;5070081;28;20021;-70
2022/06/08 05:12:16;;;;;;;4.68;0.88;;;;;;;11.92;100.00;98013.00;5070104;28;20025;-70
2022/06/08 05:14:42;;;;;;;2.72;0.95;;;;;;;11.98;100.00;98018.06;5068860;28;20386;-70
2022/06/08 05:17:07;;;;;;;1.35;0.93;;;;;;;12.02;100.00;98005.66;5070042;28;20063;-70
2022/06/08 05:19:33;;;;;;;3.38;1.48;;;;;;;12.23;100.00;98005.75;5069935;28;20092;-70
2022/06/08 05:21:58;;;;;;;1.60;1.08;;;;;;;12.35;100.00;98000.03;5070048;28;20028;-70
2022/06/08 05:24:23;;;;;;;1.45;1.20;;;;;;;13.02;99.27;97996.59;5069967;28;20020;-70
2022/06/08 05:26:49;;;;;;;2.05;0.95;;;;;;;14.38;93.89;97993.50;5069857;28;20047;-70
2022/06/08 05:29:14;;;;;;;1.23;0.90;;;;;;;15.44;88.79;97990.22;5069899;28;20088;-70
2022/06/08 05:31:40;;;;;;;3.83;1.13;;;;;;;16.29;85.93;97992.06;5069336;28;20317;-70
2022/06/08 05:34:05;;;;;;;4.22;0.93;;;;;;;16.67;83.72;97982.97;5066820;28;20088;-70
2022/06/08 05:36:30;;;;;;;2.70;1.08;;;;;;;16.68;82.96;97977.56;5066767;28;20021;-70
2022/06/08 05:38:56;;;;;;;1.73;1.00;;;;;;;17.85;80.03;97979.81;5066674;28;20063;-70
2022/06/08 05:41:21;;;;;;;1.42;0.80;;;;;;;18.50;76.88;97979.41;5066629;28;20031;-70
2022/06/08 05:43:46;;;;;;;0.98;0.82;;;;;;;19.29;75.10;97967.31;5066543;28;20020;-70
2022/06/08 05:46:12;;;;;;;3.28;1.00;;;;;;;19.55;75.46;97969.97;5066516;28;20021;-70
2022/06/08 05:48:37;;;;;;;1.98;0.93;;;;;;;20.16;75.82;97978.31;5066372;28;20075;-70
2022/06/08 05:51:02;;;;;;;1.55;1.02;;;;;;;20.86;71.24;97983.16;5066260;28;20066;-70
2022/06/08 05:53:28;;;;;;;2.75;1.30;;;;;;;21.21;70.57;97978.88;5066523;28;20021;-70
2022/06/08 05:55:53;;;;;;;5.82;1.10;;;;;;;21.45;68.53;97986.06;5066315;28;20213;-70
2022/06/08 05:58:19;;;;;;;2.83;0.90;;;;;;;21.92;69.03;97984.28;5066551;28;20059;-70
2022/06/08 06:00:44;;;;;;;1.35;0.60;;;;;;;20.58;70.37;97980.72;5066258;28;20070;-70
2022/06/08 06:03:10;;;;;;;1.02;0.80;;;;;;;19.99;73.74;97981.22;5066289;28;20328;-70
2022/06/08 06:05:38;;;;;;;6.20;0.93;;;;;;;19.77;75.09;97980.94;5066049;28;20021;-70
2022/06/08 06:08:04;;;;;;;2.22;1.00;;;;;;;19.55;74.95;97975.31;5065974;28;20201;-70
2022/06/08 06:10:32;;;;;;;1.17;0.95;;;;;;;18.95;78.04;97973.88;5066043;28;20025;-70
2022/06/08 06:12:57;;;;;;;1.20;0.80;;;;;;;18.80;77.29;97969.53;5066433;28;20194;-70
2022/06/08 06:15:24;;;;;;;3.50;0.95;;;;;;;18.73;78.66;97966.38;5065931;28;20027;-70
2022/06/08 06:17:50;;;;;;;4.40;1.02;;;;;;;18.76;80.70;97962.66;5065872;28;20051;-70
2022/06/08 06:20:16;;;;;;;5.20;0.88;;;;;;;18.93;76.90;97955.34;5065817;28;20024;-70
2022/06/08 06:22:42;;;;;;;3.97;1.05;;;;;;;19.89;71.26;97957.91;5065864;28;20088;-70
2022/06/08 06:25:10;;;;;;;1.33;0.68;;;;;;;20.23;71.09;97952.88;5065810;28;20074;-70
2022/06/08 06:27:35;;;;;;;4.10;1.20;;;;;;;20.13;70.89;97950.94;5065689;28;20028;-70
2022/06/08 06:30:01;;;;;;;6.70;1.17;;;;;;;19.92;70.38;97953.22;5065952;28;20021;-70
2022/06/08 06:32:30;;;;;;;1.40;0.73;;;;;;;20.12;69.74;97944.72;5065630;28;20313;-70
2022/06/08 06:34:58;;;;;;;2.90;0.95;;;;;;;20.42;67.35;97949.78;5065555;28;20050;-70
2022/06/08 06:37:24;;;;;;;7.15;1.25;;;;;;;20.06;67.85;97938.94;5065544;28;20027;-70
2022/06/08 06:39:51;;;;;;;4.70;1.40;;;;;;;19.81;67.83;97938.88;5065463;28;20054;-70
2022/06/08 06:42:19;;;;;;;4.35;1.13;;;;;;;19.88;68.55;97935.69;5065392;28;20032;-70
2022/06/08 06:44:45;;;;;;;1.35;0.80;;;;;;;19.53;70.76;97934.53;5064923;28;20249;-70
2022/06/08 06:47:11;;;;;;;4.13;1.05;;;;;;;19.50;71.18;97933.88;5065333;28;20024;-70
2022/06/08 06:49:36;;;;;;;3.08;1.00;;;;;;;19.48;71.17;97931.28;5065527;28;20028;-70
2022/06/08 06:52:02;;;;;;;4.93;1.10;;;;;;;20.00;69.77;97934.00;5065148;28;20131;-70
2022/06/08 06:54:28;;;;;;;3.53;1.50;;;;;;;21.08;68.04;97937.88;5065483;28;20021;-70
2022/06/08 06:56:53;;;;;;;6.28;1.10;;;;;;;21.74;65.28;97950.00;5065173;28;20020;-70
2022/06/08 06:59:18;;;;;;;3.72;1.30;;;;;;;22.42;65.04;97935.72;5065089;28;20021;-70
2022/06/08 07:01:44;;;;;;;2.08;0.90;;;;;;;22.96;62.81;97938.56;5065007;28;20063;-70
2022/06/08 07:04:09;;;;;;;2.65;1.00;;;;;;;23.59;60.79;97945.94;5065010;28;20021;-70
2022/06/08 07:06:34;;;;;;;3.70;1.13;;;;;;;23.73;58.37;97934.94;5065000;28;20024;-70
2022/06/08 07:09:00;;;;;;;4.65;1.33;;;;;;;23.83;56.73;97938.56;5064877;28;20025;-70
2022/06/08 07:11:32;;;;;;;3.03;0.95;;;;;;;24.60;56.61;97936.34;5064846;28;20031;-70
2022/06/08 07:13:59;;;;;;;2.03;0.98;;;;;;;24.77;54.33;97933.06;5065114;28;20024;-70
2022/06/08 07:16:25;;;;;;;5.10;0.93;;;;;;;25.09;54.04;97931.06;5064716;28;20339;-70
2022/06/08 07:18:50;;;;;;;3.72;1.17;;;;;;;24.49;54.99;97928.31;5064736;28;20017;-70
2022/06/08 07:21:16;;;;;;;5.95;1.42;;;;;;;24.93;53.93;97928.03;5064711;28;20048;-70
2022/06/08 07:23:42;;;;;;;6.25;1.17;;;;;;;25.76;52.06;97927.72;5064878;28;20040;-70
2022/06/08 07:26:08;;;;;;;4.07;1.20;;;;;;;25.59;50.34;97925.72;5064617;28;20031;-70
2022/06/08 07:28:33;;;;;;;5.90;0.82;;;;;;;25.12;52.52;97916.50;5064749;28;20033;-70
2022/06/08 07:31:00;;;;;;;4.20;1.15;;;;;;;24.96;54.46;97911.59;5064500;28;20088;-70
2022/06/08 07:33:25;;;;;;;5.38;1.20;;;;;;;23.98;54.69;97913.94;5064481;28;20100;-70
2022/06/08 07:35:51;;;;;;;5.45;1.48;;;;;;;23.90;57.48;97918.25;5064468;28;20029;-70
2022/06/08 07:38:16;;;;;;;5.10;1.50;;;;;;;23.95;57.02;97911.53;5064461;28;20024;-70
2022/06/08 07:40:41;;;;;;;4.95;1.30;;;;;;;23.42;57.12;97907.06;5064634;28;20016;-70
2022/06/08 07:43:07;;;;;;;2.70;0.93;;;;;;;23.15;56.98;97901.22;5064307;28;20020;-70
2022/06/08 07:45:33;;;;;;;2.65;0.80;;;;;;;22.38;58.98;97890.47;5064267;28;20021;-70
2022/06/08 07:50:43;;;;;;;3.30;0.95;;;;;;;23.76;57.19;97889.81;5063988;28;20052;-70
2022/06/08 07:53:08;;;;;;;5.18;0.90;;;;;;;23.22;56.84;97883.63;5064212;28;20032;-70
2022/06/08 07:55:34;;;;;;;3.63;0.98;;;;;;;22.79;57.30;97890.78;5063292;28;20020;-70
2022/06/08 07:57:59;;;;;;;3.50;1.00;;;;;;;22.06;61.46;97892.13;5064105;28;20017;-70
2022/06/08 08:00:26;;;;;;;5.22;1.08;;;;;;;21.84;60.78;97884.88;5064050;28;20028;-70
2022/06/08 08:02:52;;;;;;;2.25;0.80;;;;;;;22.36;61.12;97879.00;5064008;28;20106;-70
2022/06/08 08:05:19;;;;;;;4.97;1.13;;;;;;;22.74;60.01;97882.22;5064344;28;20194;-70
2022/06/08 08:07:45;;;;;;;5.75;1.10;;;;;;;22.71;59.59;97863.69;5063861;28;20217;-70
2022/06/08 08:10:15;;;;;;;3.72;0.88;;;;;;;24.82;55.06;97876.13;5063984;28;20020;-70
2022/06/08 08:12:40;;;;;;;4.90;1.02;;;;;;;25.61;52.22;97877.91;5063967;28;20027;-70
2022/06/08 08:15:07;;;;;;;2.42;0.93;;;;;;;24.79;53.83;97861.09;5063987;28;20021;-70
2022/06/08 08:17:33;;;;;;;3.83;1.05;;;;;;;24.40;53.37;97864.59;5064121;28;20017;-70
2022/06/08 08:19:58;;;;;;;5.70;0.80;;;;;;;23.50;54.74;97864.28;5063988;28;20086;-70
2022/06/08 08:22:23;;;;;;;3.95;1.20;;;;;;;24.13;56.04;97866.94;5063793;28;20024;-70
2022/06/08 08:24:49;;;;;;;9.88;1.38;;;;;;;24.70;52.39;97861.91;5063780;28;20025;-70
2022/06/08 08:27:14;;;;;;;2.15;0.70;;;;;;;24.86;54.11;97851.50;5063948;28;20313;-70
2022/06/08 08:29:40;;;;;;;7.47;1.15;;;;;;;25.36;52.44;97859.56;5063813;28;20020;-70
2022/06/08 08:32:08;;;;;;;5.05;0.90;;;;;;;25.83;51.49;97853.34;5063807;28;20024;-70
2022/06/08 08:34:34;;;;;;;2.33;0.85;;;;;;;26.14;51.43;97849.53;5063697;28;20051;-70
2022/06/08 08:37:00;;;;;;;6.38;1.17;;;;;;;25.42;49.89;97837.47;5063777;28;20024;-70
2022/06/08 08:39:25;;;;;;;4.47;1.20;;;;;;;25.92;51.54;97842.59;5063889;28;20086;-70
2022/06/08 08:44:42;;;;;;;5.72;0.98;;;;;;;26.07;51.10;97824.97;5063606;28;20067;-70
2022/06/08 08:47:43;;;;;;;7.10;1.17;;;;;;;25.68;49.53;97827.81;5063542;28;20360;-70
2022/06/08 08:50:21;;;;;;;5.10;1.30;;;;;;;25.92;49.72;97825.53;5063637;28;20333;-70
2022/06/08 08:53:12;;;;;;;6.00;1.05;;;;;;;25.47;51.31;97827.13;5063508;28;20229;-71
2022/06/08 08:55:58;;;;;;;8.27;1.30;;;;;;;25.76;51.33;97826.13;5060947;28;20033;-71
2022/06/08 08:58:30;;;;;;;2.80;1.00;;;;;;;27.17;48.80;97822.28;5063714;28;20186;-71
2022/06/08 09:00:56;;;;;;;7.70;1.23;;;;;;;26.60;50.00;97817.13;5063482;28;20088;-71
2022/06/08 09:03:34;;;;;;;7.45;1.20;;;;;;;25.10;51.72;97816.13;5063378;28;20119;-71
2022/06/08 09:06:18;;;;;;;3.88;1.00;;;;;;;24.75;51.76;97816.63;5063480;28;20025;-71
2022/06/08 09:08:47;;;;;;;6.13;1.10;;;;;;;24.29;52.33;97808.16;5067299;28;20324;-71
2022/06/08 09:11:26;;;;;;;4.38;1.00;;;;;;;23.53;54.34;97807.63;5067432;28;20368;-71
2022/06/08 09:13:54;;;;;;;4.03;0.90;;;;;;;23.06;55.21;97802.63;5067112;28;20095;-71
2022/06/08 09:16:39;;;;;;;6.13;1.30;;;;;;;22.64;56.89;97796.28;5067363;28;20025;-71
2022/06/08 09:19:36;;;;;;;3.55;1.00;;;;;;;22.25;57.61;97796.75;5067153;28;20021;-71
2022/06/08 09:22:21;;;;;;;6.43;1.20;;;;;;;22.10;59.05;97794.44;5067012;28;20080;-71
2022/06/08 09:24:53;;;;;;;3.00;0.95;;;;;;;22.04;59.00;97793.09;5066968;28;20052;-71
2022/06/08 09:27:22;;;;;;;7.38;1.00;;;;;;;22.01;59.25;97792.47;5066890;28;20024;-71
2022/06/08 09:30:06;;;;;;;6.63;1.45;;;;;;;21.98;58.65;97784.66;5067133;28;20021;-71
2022/06/08 09:32:33;;;;;;;2.90;0.80;;;;;;;21.90;58.38;97784.41;5066805;28;20021;-70
2022/06/08 09:35:03;;;;;;;4.97;1.05;;;;;;;22.04;58.40;97777.00;5066765;28;20213;-70
2022/06/08 09:37:29;;;;;;;6.82;1.23;;;;;;;22.18;59.08;97778.59;5066700;28;20113;-70
2022/06/08 09:39:58;;;;;;;4.30;1.00;;;;;;;23.11;57.37;97793.25;5066687;28;20021;-70
2022/06/08 09:42:40;;;;;;;3.22;1.17;;;;;;;22.64;56.43;97779.31;5066632;28;20016;-70
2022/06/08 09:45:29;;;;;;;3.10;0.80;;;;;;;22.23;57.47;97777.25;5066592;28;20016;-70
2022/06/08 09:51:27;;;;;;;1.40;0.90;;;;;;;21.88;60.41;97786.34;5066318;28;20402;-70
2022/06/08 09:54:41;;;;;;;6.40;1.30;;;;;;;22.02;61.26;97778.09;5066398;28;20347;-70
2022/06/08 09:57:26;;;;;;;4.15;0.88;;;;;;;22.02;62.64;97775.44;5061386;28;20041;-70
2022/06/08 09:59:52;;;;;;;5.03;1.10;;;;;;;22.37;63.63;97785.03;5066539;28;20091;-70
2022/06/08 10:02:34;;;;;;;2.72;1.05;;;;;;;22.68;62.24;97787.00;5066163;28;20375;-70
2022/06/08 10:05:12;;;;;;;2.63;1.08;;;;;;;24.00;57.50;97774.88;5066268;28;20032;-70
2022/06/08 10:07:51;;;;;;;7.53;1.42;;;;;;;25.11;55.67;97770.22;5066047;28;20032;-70
2022/06/08 10:10:27;;;;;;;3.63;1.15;;;;;;;25.66;50.79;97757.03;5066119;28;20021;-70
2022/06/08 10:12:58;;;;;;;3.67;0.93;;;;;;;26.63;51.29;97752.09;5066265;28;20070;-70
2022/06/08 10:15:42;;;;;;;6.63;1.70;;;;;;;25.37;52.94;97753.53;5065907;28;20096;-70
2022/06/08 10:18:19;;;;;;;3.40;0.98;;;;;;;24.36;54.26;97749.31;5065292;28;20021;-70
2022/06/08 10:20:55;;;;;;;6.07;1.05;;;;;;;23.73;54.38;97744.97;5065879;28;20021;-70
2022/06/08 10:23:39;;;;;;;4.38;0.88;;;;;;;23.52;55.45;97738.78;5066082;28;20028;-70
2022/06/08 10:26:15;;;;;;;3.97;1.00;;;;;;;23.24;60.33;97747.47;5065907;28;20020;-70
2022/06/08 10:29:00;;;;;;;7.38;1.00;;;;;;;22.77;57.60;97729.03;5065629;28;20032;-70
2022/06/08 10:31:36;;;;;;;2.40;0.70;;;;;;;22.76;57.68;97730.03;5065658;28;20028;-70
2022/06/08 10:34:04;;;;;;;3.45;1.20;;;;;;;23.73;57.04;97739.59;5065616;28;20025;-70
2022/06/08 10:36:32;;;;;;;5.40;1.67;;;;;;;24.60;57.17;97733.66;5065553;28;20307;-70
2022/06/08 10:39:01;;;;;;;7.25;1.08;;;;;;;24.06;54.75;97717.03;5064403;28;20017;-70
2022/06/08 10:44:43;;;;;;;4.90;1.13;;;;;;;23.38;56.54;97717.59;5065409;28;20272;-70
2022/06/08 10:47:16;;;;;;;3.10;1.20;;;;;;;23.43;57.08;97726.13;5065363;28;20025;-70
2022/06/08 10:49:49;;;;;;;5.20;0.90;;;;;;;23.25;59.65;97728.53;5065588;28;20051;-70
2022/06/08 10:52:17;;;;;;;3.50;1.15;;;;;;;22.68;57.48;97719.06;5065297;28;20037;-70
2022/06/08 10:54:54;;;;;;;3.05;1.17;;;;;;;22.28;58.76;97715.22;5065269;28;20071;-70
2022/06/08 10:57:44;;;;;;;5.40;1.00;;;;;;;21.91;58.50;97720.00;5065183;28;20332;-70
2022/06/08 11:00:18;;;;;;;2.38;0.90;;;;;;;21.86;60.69;97726.69;5065108;28;20024;-70
2022/06/08 11:02:49;;;;;;;4.22;0.90;;;;;;;21.58;61.50;97711.91;5064946;28;20100;-70
2022/06/08 11:05:40;;;;;;;3.25;1.23;;;;;;;21.68;61.24;97714.72;5065052;28;20393;-70
2022/06/08 11:08:09;;;;;;;3.83;1.33;;;;;;;22.07;60.97;97716.94;5064603;28;20059;-70
2022/06/08 11:10:44;;;;;;;2.58;1.00;;;;;;;22.84;60.18;97720.38;5064923;28;20025;-70
2022/06/08 11:13:14;;;;;;;4.47;1.40;;;;;;;23.04;58.82;97713.34;5064878;28;20028;-70
2022/06/08 11:15:48;;;;;;;3.40;0.90;;;;;;;22.93;59.73;97705.34;5065081;28;20024;-70
2022/06/08 11:18:31;;;;;;;7.55;1.23;;;;;;;22.72;58.88;97702.59;5065040;28;20020;-70
2022/06/08 11:21:38;;;;;;;4.40;1.23;;;;;;;23.04;59.15;97713.34;5064748;28;20028;-70
2022/06/08 11:24:17;;;;;;;4.75;1.23;;;;;;;23.08;58.25;97696.00;5061694;28;20143;-70
2022/06/08 11:27:00;;;;;;;4.97;1.17;;;;;;;23.55;60.07;97700.91;5064674;28;20324;-70
2022/06/08 11:29:31;;;;;;;6.53;1.20;;;;;;;23.83;56.89;97684.09;5064480;28;20040;-70
2022/06/08 11:31:57;;;;;;;7.85;1.17;;;;;;;23.95;57.50;97685.72;5064502;28;20016;-70
2022/06/08 11:34:35;;;;;;;3.20;0.95;;;;;;;24.07;58.15;97692.72;5064487;28;20233;-70
2022/06/08 11:37:15;;;;;;;2.72;1.20;;;;;;;24.14;58.08;97680.41;5064510;28;20029;-70
2022/06/08 11:39:53;;;;;;;3.25;0.90;;;;;;;23.73;57.75;97671.59;5064422;28;20025;-70
2022/06/08 11:42:29;;;;;;;7.03;1.42;;;;;;;23.02;57.57;97683.09;5064400;28;20083;-70
2022/06/08 11:45:01;;;;;;;6.03;1.55;;;;;;;22.63;58.86;97681.06;5064318;28;20024;-70
2022/06/08 11:47:35;;;;;;;4.90;1.20;;;;;;;22.57;59.21;97670.84;5064225;28;20029;-70
2022/06/08 11:50:14;;;;;;;6.22;1.25;;;;;;;22.41;61.03;97683.75;5064097;28;20092;-70
2022/06/08 11:52:43;;;;;;;7.90;1.20;;;;;;;21.82;61.46;97682.34;5064194;28;20047;-70
2022/06/08 11:55:16;;;;;;;3.58;0.98;;;;;;;21.47;62.89;97678.88;5064445;28;20024;-70
2022/06/08 11:57:46;;;;;;;5.82;1.45;;;;;;;21.42;63.38;97681.91;5064070;28;20087;-70
2022/06/08 12:00:21;;;;;;;2.63;1.00;;;;;;;21.38;65.09;97682.31;5064136;28;20021;-70